createdAt,value
2018-05-11T00:00:27.699Z,81.90
2018-05-11T00:02:56.476Z,82.20
2018-05-11T00:05:24.106Z,82.10
2018-05-11T00:07:51.793Z,82.70
2018-05-11T00:10:19.399Z,82.40
2018-05-11T00:12:47.038Z,83.20
2018-05-11T00:15:15.677Z,82.80
2018-05-11T00:17:43.227Z,82.70
2018-05-11T00:20:11.551Z,83.20
2018-05-11T00:22:39.191Z,83.00
2018-05-11T00:25:06.790Z,83.30
2018-05-11T00:27:35.194Z,82.40
2018-05-11T00:30:03.618Z,81.90
2018-05-11T00:32:31.230Z,81.90
2018-05-11T00:34:58.781Z,82.20
2018-05-11T00:37:26.353Z,81.90
2018-05-11T00:39:53.940Z,81.70
2018-05-11T00:42:21.554Z,81.50
2018-05-11T00:44:49.155Z,82.20
2018-05-11T00:47:16.730Z,82.00
2018-05-11T00:49:44.265Z,82.60
2018-05-11T00:52:11.836Z,82.10
2018-05-11T00:54:39.494Z,80.90
2018-05-11T00:57:07.017Z,80.80
2018-05-11T00:59:34.571Z,80.90
2018-05-11T01:02:02.943Z,81.30
2018-05-11T01:04:30.522Z,81.20
2018-05-11T01:06:58.138Z,81.10
2018-05-11T01:09:25.763Z,81.20
2018-05-11T01:11:54.086Z,80.00
2018-05-11T01:14:21.705Z,79.90
2018-05-11T01:16:50.461Z,80.50
2018-05-11T01:19:18.773Z,81.10
2018-05-11T01:21:46.573Z,80.20
2018-05-11T01:24:14.161Z,80.60
2018-05-11T01:26:41.712Z,80.90
2018-05-11T01:29:10.057Z,80.20
2018-05-11T01:31:39.171Z,79.50
2018-05-11T01:34:06.756Z,79.50
2018-05-11T01:36:35.075Z,79.30
2018-05-11T01:39:02.781Z,79.20
2018-05-11T01:41:30.385Z,79.60
2018-05-11T01:43:58.753Z,79.40
2018-05-11T01:46:26.811Z,79.40
2018-05-11T01:48:54.484Z,80.10
2018-05-11T01:51:22.832Z,79.30
2018-05-11T01:53:50.381Z,79.30
2018-05-11T01:56:17.967Z,79.50
2018-05-11T01:58:45.514Z,79.60
2018-05-11T02:01:13.091Z,79.40
2018-05-11T02:03:40.639Z,79.40
2018-05-11T02:06:08.977Z,78.90
2018-05-11T02:08:37.290Z,78.50
2018-05-11T02:11:05.624Z,78.40
2018-05-11T02:13:33.985Z,78.40
2018-05-11T02:16:01.560Z,78.40
2018-05-11T02:18:29.178Z,77.90
2018-05-11T02:20:56.720Z,77.80
2018-05-11T02:23:25.097Z,77.80
2018-05-11T02:25:52.725Z,77.80
2018-05-11T02:28:20.358Z,77.90
2018-05-11T02:30:47.908Z,77.90
2018-05-11T02:33:15.504Z,77.90
2018-05-11T02:35:43.056Z,77.50
2018-05-11T02:38:10.661Z,77.50
2018-05-11T02:40:38.235Z,77.40
2018-05-11T02:43:05.824Z,77.70
2018-05-11T02:45:33.367Z,77.70
2018-05-11T02:48:01.271Z,77.10
2018-05-11T02:50:28.858Z,77.30
2018-05-11T02:52:57.016Z,76.60
2018-05-11T02:55:24.595Z,76.00
2018-05-11T02:57:52.155Z,76.20
2018-05-11T03:00:20.573Z,76.60
2018-05-11T03:02:48.188Z,76.60
2018-05-11T03:05:15.736Z,76.80
2018-05-11T03:07:43.313Z,77.50
2018-05-11T03:10:10.885Z,76.60
2018-05-11T03:12:38.473Z,77.00
2018-05-11T03:15:06.045Z,77.50
2018-05-11T03:17:33.619Z,77.90
2018-05-11T03:20:01.935Z,77.60
2018-05-11T03:22:29.542Z,77.60
2018-05-11T03:24:57.865Z,78.00
2018-05-11T03:27:26.219Z,79.40
2018-05-11T03:29:53.787Z,79.40
2018-05-11T03:32:21.325Z,78.00
2018-05-11T03:34:49.230Z,78.30
2018-05-11T03:37:16.803Z,78.60
2018-05-11T03:39:45.130Z,77.60
2018-05-11T03:42:13.566Z,78.40
2018-05-11T03:44:41.105Z,78.40
2018-05-11T03:47:08.710Z,77.70
2018-05-11T03:49:36.283Z,77.80
2018-05-11T03:52:03.864Z,77.00
2018-05-11T03:54:32.548Z,76.00
2018-05-11T03:57:00.102Z,75.90
2018-05-11T03:59:27.675Z,76.50
2018-05-11T04:02:07.985Z,75.40
2018-05-11T04:04:47.271Z,75.40
2018-05-11T04:07:26.524Z,75.50
2018-05-11T04:09:55.004Z,75.20
2018-05-11T04:12:23.341Z,74.70
2018-05-11T04:14:50.940Z,74.70
2018-05-11T04:17:19.261Z,74.70
2018-05-11T04:19:48.700Z,73.90
2018-05-11T04:22:16.271Z,73.90
2018-05-11T04:24:44.596Z,74.20
2018-05-11T04:27:12.954Z,73.80
2018-05-11T04:29:40.518Z,73.80
2018-05-11T04:32:08.846Z,73.30
2018-05-11T04:34:37.216Z,73.10
2018-05-11T04:37:05.536Z,73.40
2018-05-11T04:39:33.155Z,73.20
2018-05-11T04:42:01.489Z,72.70
2018-05-11T04:44:29.962Z,72.60
2018-05-11T04:46:59.071Z,72.00
2018-05-11T04:49:26.671Z,71.90
2018-05-11T04:51:54.266Z,71.60
2018-05-11T04:54:21.835Z,70.20
2018-05-11T04:56:49.413Z,70.40
2018-05-11T04:59:16.990Z,69.80
2018-05-11T05:01:45.320Z,69.10
2018-05-11T05:04:12.883Z,69.10
2018-05-11T05:06:41.195Z,69.20
2018-05-11T05:09:09.557Z,69.20
2018-05-11T05:11:37.123Z,69.30
2018-05-11T05:14:04.743Z,69.10
2018-05-11T05:16:32.294Z,68.90
2018-05-11T05:18:59.909Z,68.70
2018-05-11T05:21:27.494Z,68.60
2018-05-11T05:23:55.072Z,68.30
2018-05-11T05:26:22.657Z,67.90
2018-05-11T05:28:50.291Z,67.40
2018-05-11T05:31:18.619Z,66.80
2018-05-11T05:33:46.975Z,66.80
2018-05-11T05:36:15.331Z,66.90
2018-05-11T05:38:42.883Z,66.90
2018-05-11T05:41:10.470Z,65.70
2018-05-11T05:43:38.940Z,63.40
2018-05-11T05:46:07.281Z,63.30
2018-05-11T05:48:35.639Z,63.60
2018-05-11T05:51:03.243Z,63.60
2018-05-11T05:53:30.792Z,63.40
2018-05-11T05:55:58.765Z,64.10
2018-05-11T05:58:27.137Z,63.60
2018-05-11T06:00:54.663Z,63.50
2018-05-11T06:03:23.384Z,63.20
2018-05-11T06:05:50.942Z,63.10
2018-05-11T06:08:18.575Z,62.40
2018-05-11T06:10:46.239Z,62.60
2018-05-11T06:13:13.852Z,62.30
2018-05-11T06:15:41.619Z,62.00
2018-05-11T06:18:09.260Z,61.70
2018-05-11T06:20:37.565Z,62.10
2018-05-11T06:23:05.172Z,61.70
2018-05-11T06:25:34.061Z,59.40
2018-05-11T06:28:01.605Z,59.40
2018-05-11T06:30:29.199Z,59.30
2018-05-11T06:32:57.551Z,56.30
2018-05-11T06:35:25.109Z,56.30
2018-05-11T06:37:52.717Z,53.60
2018-05-11T06:40:20.257Z,52.70
2018-05-11T06:42:47.796Z,52.30
2018-05-11T06:45:15.406Z,52.20
2018-05-11T06:47:42.957Z,51.50
2018-05-11T06:50:10.919Z,50.80
2018-05-11T06:52:39.327Z,55.20
2018-05-11T06:55:06.920Z,55.20
2018-05-11T06:57:35.168Z,55.80
2018-05-11T07:00:03.572Z,56.20
2018-05-11T07:02:31.109Z,56.20
2018-05-11T07:04:58.711Z,56.40
2018-05-11T07:07:26.319Z,56.50
2018-05-11T07:09:53.947Z,56.30
2018-05-11T07:12:21.527Z,56.80
2018-05-11T07:14:49.150Z,56.80
2018-05-11T07:17:16.890Z,57.30
2018-05-11T07:19:44.518Z,57.80
2018-05-11T07:22:12.092Z,58.40
2018-05-11T07:24:39.649Z,58.30
2018-05-11T07:27:07.240Z,57.90
2018-05-11T07:29:36.546Z,56.40
2018-05-11T07:32:05.856Z,56.90
2018-05-11T07:34:33.474Z,57.00
2018-05-11T07:37:01.860Z,58.30
2018-05-11T07:39:29.468Z,58.30
2018-05-11T07:41:57.146Z,58.50
2018-05-11T07:44:24.731Z,57.70
2018-05-11T07:46:52.295Z,58.20
2018-05-11T07:49:20.855Z,57.50
2018-05-11T07:51:48.399Z,57.40
2018-05-11T07:54:16.017Z,57.80
2018-05-11T07:56:44.338Z,58.10
2018-05-11T07:59:12.855Z,57.80
2018-05-11T08:01:41.168Z,58.40
2018-05-11T08:04:09.967Z,58.70
2018-05-11T08:06:37.648Z,58.70
2018-05-11T08:09:06.407Z,58.50
2018-05-11T08:11:34.303Z,57.20
2018-05-11T08:14:02.685Z,58.80
2018-05-11T08:16:30.268Z,58.30
2018-05-11T08:18:57.900Z,58.20
2018-05-11T08:21:25.491Z,58.60
2018-05-11T08:23:54.037Z,59.10
2018-05-11T08:26:22.386Z,58.80
2018-05-11T08:28:49.972Z,59.00
2018-05-11T08:31:18.638Z,57.80
2018-05-11T08:33:46.182Z,57.80
2018-05-11T08:36:13.892Z,58.00
2018-05-11T08:38:42.239Z,56.80
2018-05-11T08:41:09.818Z,56.70
2018-05-11T08:43:37.366Z,55.30
2018-05-11T08:46:05.814Z,54.60
2018-05-11T08:48:33.389Z,54.50
2018-05-11T08:51:01.013Z,55.80
2018-05-11T08:53:29.377Z,56.10
2018-05-11T08:55:57.133Z,56.20
2018-05-11T08:58:24.805Z,55.90
2018-05-11T09:00:53.161Z,57.00
2018-05-11T09:03:20.757Z,56.90
2018-05-11T09:05:48.427Z,56.70
2018-05-11T09:08:16.102Z,56.90
2018-05-11T09:10:44.524Z,55.90
2018-05-11T09:13:12.143Z,55.90
2018-05-11T09:15:40.649Z,55.60
2018-05-11T09:18:08.503Z,55.60
2018-05-11T09:20:36.907Z,56.00
2018-05-11T09:23:05.389Z,56.00
2018-05-11T09:25:33.013Z,55.90
2018-05-11T09:28:00.605Z,56.00
2018-05-11T09:30:28.178Z,54.50
2018-05-11T09:32:55.826Z,54.70
2018-05-11T09:35:23.563Z,54.80
2018-05-11T09:37:51.422Z,54.80
2018-05-11T09:40:19.202Z,55.60
2018-05-11T09:42:47.745Z,51.20
2018-05-11T09:45:15.571Z,51.10
2018-05-11T09:47:43.262Z,47.70
2018-05-11T09:50:13.238Z,43.70
2018-05-11T09:52:42.339Z,42.20
2018-05-11T09:55:10.097Z,42.20
2018-05-11T09:57:37.625Z,40.70
2018-05-11T10:00:05.202Z,40.80
2018-05-11T10:02:32.796Z,41.70
2018-05-11T10:05:02.116Z,38.30
2018-05-11T10:07:29.711Z,38.10
2018-05-11T10:09:57.297Z,37.40
2018-05-11T10:12:24.960Z,37.70
2018-05-11T10:14:53.960Z,38.00
2018-05-11T10:17:22.413Z,39.80
2018-05-11T10:19:50.093Z,39.80
2018-05-11T10:22:17.727Z,40.70
2018-05-11T10:24:46.078Z,41.60
2018-05-11T10:27:13.721Z,41.60
2018-05-11T10:29:42.294Z,40.10
2018-05-11T10:32:10.618Z,38.40
2018-05-11T10:34:41.939Z,38.40
2018-05-11T10:46:20.700Z,37.60
2018-05-11T10:48:48.392Z,37.60
2018-05-11T10:51:15.956Z,37.90
2018-05-11T10:53:43.513Z,37.20
2018-05-11T10:56:11.068Z,40.10
2018-05-11T10:58:38.659Z,40.40
2018-05-11T11:01:06.328Z,40.60
2018-05-11T11:03:34.800Z,40.00
2018-05-11T11:06:06.427Z,40.50
2018-05-11T11:08:33.970Z,39.20
2018-05-11T11:11:02.322Z,40.80
2018-05-11T11:13:30.672Z,43.20
2018-05-11T11:16:04.300Z,43.10
2018-05-11T11:18:33.897Z,44.30
2018-05-11T11:21:01.467Z,45.90
2018-05-11T11:23:29.865Z,48.80
2018-05-11T11:25:57.542Z,48.80
2018-05-11T11:28:29.178Z,50.10
2018-05-11T11:30:56.782Z,51.90
2018-05-11T11:36:17.908Z,53.50
2018-05-11T11:38:54.638Z,53.50
2018-05-11T11:41:28.050Z,53.90
2018-05-11T11:50:05.569Z,54.10
2018-05-11T11:52:35.344Z,53.40
2018-05-11T11:55:05.077Z,53.80
2018-05-11T11:57:38.632Z,53.30
2018-05-11T12:00:07.492Z,53.30
2018-05-11T12:02:36.322Z,53.60
2018-05-11T12:05:04.343Z,53.70
2018-05-11T12:07:32.235Z,53.70
2018-05-11T12:10:00.078Z,53.30
2018-05-11T12:15:43.543Z,53.80
2018-05-11T12:18:15.367Z,53.80
2018-05-11T12:20:47.072Z,53.50
2018-05-11T12:23:16.782Z,53.90
2018-05-11T12:28:41.527Z,53.90
2018-05-11T12:45:49.106Z,54.20
2018-05-11T12:48:17.944Z,53.80
2018-05-11T14:07:51.139Z,52.50
2018-05-11T14:10:18.805Z,53.00
2018-05-11T14:12:46.270Z,52.90
2018-05-11T14:15:15.570Z,52.90
2018-05-11T14:17:43.242Z,52.90
2018-05-11T14:20:11.858Z,52.60
2018-05-11T14:22:39.482Z,52.40
2018-05-11T14:25:07.121Z,51.40
2018-05-11T14:27:34.716Z,51.60
2018-05-11T14:30:03.420Z,51.60
2018-05-11T14:32:31.984Z,51.80
2018-05-11T14:34:59.515Z,51.70
2018-05-11T14:40:20.886Z,51.90
2018-05-11T14:42:48.427Z,52.00
2018-05-11T14:45:18.096Z,52.60
2018-05-11T14:47:46.648Z,52.60
2018-05-11T14:50:14.189Z,52.40
2018-05-11T14:52:41.746Z,51.70
2018-05-11T14:55:15.019Z,51.60
2018-05-11T14:57:42.652Z,51.60
2018-05-11T15:00:11.734Z,51.70
2018-05-11T15:02:39.365Z,51.60
2018-05-11T15:05:27.006Z,51.90
2018-05-11T15:07:56.574Z,51.70
2018-05-11T15:10:28.341Z,51.20
2018-05-11T15:12:55.917Z,51.20
2018-05-11T15:15:23.523Z,51.30
2018-05-11T15:17:51.222Z,51.10
2018-05-11T15:20:18.777Z,51.50
2018-05-11T15:22:46.397Z,52.30
2018-05-11T15:25:14.949Z,51.00
2018-05-11T15:27:44.509Z,51.20
2018-05-11T15:30:14.094Z,51.00
2018-05-11T15:32:41.677Z,50.70
2018-05-11T15:35:09.335Z,50.70
2018-05-11T15:37:36.905Z,50.30
2018-05-11T15:40:08.659Z,50.60
2018-05-11T15:42:37.155Z,50.90
2018-05-11T15:45:07.713Z,50.10
2018-05-11T15:47:35.287Z,50.20
2018-05-11T15:50:03.906Z,50.40
2018-05-11T15:52:37.481Z,50.90
2018-05-11T15:55:06.011Z,51.30
2018-05-11T15:57:33.624Z,50.20
2018-05-11T16:00:06.326Z,50.60
2018-05-11T16:02:34.971Z,50.80
2018-05-11T16:05:03.357Z,51.00
2018-05-11T16:07:31.913Z,51.00
2018-05-11T16:09:59.490Z,51.10
2018-05-11T16:12:28.831Z,50.90
2018-05-11T16:14:58.389Z,50.90
2018-05-11T16:17:27.924Z,50.60
2018-05-11T16:19:58.500Z,50.40
2018-05-11T16:22:26.130Z,50.60
2018-05-11T16:24:54.581Z,51.00
2018-05-11T16:27:24.918Z,51.00
2018-05-11T16:29:53.513Z,51.00
2018-05-11T16:32:24.930Z,51.20
2018-05-11T16:34:56.290Z,50.90
2018-05-11T16:37:25.627Z,51.20
2018-05-11T16:39:53.185Z,51.20
2018-05-11T16:42:27.684Z,51.30
2018-05-11T16:44:58.002Z,51.30
2018-05-11T16:47:26.377Z,51.50
2018-05-11T16:49:55.655Z,51.40
2018-05-11T16:52:26.303Z,51.30
2018-05-11T16:54:55.578Z,52.00
2018-05-11T16:57:24.890Z,51.70
2018-05-11T16:59:53.393Z,51.70
2018-05-11T17:02:22.756Z,51.90
2018-05-11T17:04:50.339Z,51.60
2018-05-11T17:07:17.917Z,51.60
2018-05-11T17:09:47.246Z,51.80
2018-05-11T17:12:15.785Z,51.70
2018-05-11T17:14:45.305Z,51.50
2018-05-11T17:17:14.612Z,52.10
2018-05-11T17:19:43.948Z,51.90
2018-05-11T17:22:13.512Z,52.00
2018-05-11T17:24:41.237Z,52.10
2018-05-11T17:27:10.756Z,52.20
2018-05-11T17:29:38.421Z,52.10
2018-05-11T17:32:06.043Z,52.10
2018-05-11T17:34:37.185Z,52.20
2018-05-11T17:37:04.743Z,52.30
2018-05-11T17:39:36.403Z,52.20
2018-05-11T17:42:05.688Z,52.50
2018-05-11T17:44:35.170Z,52.50
2018-05-11T17:47:03.653Z,52.70
2018-05-11T17:49:31.224Z,52.50
2018-05-11T17:51:59.668Z,52.80
2018-05-11T17:54:27.210Z,53.40
2018-05-11T17:56:54.861Z,52.60
2018-05-11T17:59:22.410Z,52.30
2018-05-11T18:01:50.054Z,52.50
2018-05-11T18:04:18.586Z,52.60
2018-05-11T18:06:48.246Z,52.90
2018-05-11T18:09:15.864Z,52.80
2018-05-11T18:11:43.487Z,53.20
2018-05-11T18:14:11.029Z,53.00
2018-05-11T18:16:40.392Z,53.20
2018-05-11T18:19:08.009Z,53.10
2018-05-11T18:21:35.589Z,53.50
2018-05-11T18:24:04.141Z,53.60
2018-05-11T18:26:36.745Z,53.60
2018-05-11T18:29:06.452Z,53.70
2018-05-11T18:31:34.986Z,53.90
2018-05-11T18:34:02.548Z,54.00
2018-05-11T18:36:31.621Z,53.80
2018-05-11T18:38:59.329Z,53.90
2018-05-11T18:41:28.714Z,54.20
2018-05-11T18:43:56.375Z,54.70
2018-05-11T18:46:24.765Z,54.00
2018-05-11T18:48:57.037Z,54.20
2018-05-11T18:51:26.330Z,53.90
2018-05-11T18:53:58.921Z,54.10
2018-05-11T18:56:26.104Z,54.10
2018-05-11T18:58:55.806Z,54.10
2018-05-11T19:01:23.430Z,54.40
2018-05-11T19:03:51.813Z,54.50
2018-05-11T19:06:26.020Z,54.80
2018-05-11T19:08:58.857Z,54.80
2018-05-11T19:11:26.877Z,54.70
2018-05-11T19:13:58.365Z,54.90
2018-05-11T19:16:25.931Z,55.10
2018-05-11T19:18:53.509Z,55.30
2018-05-11T19:21:22.320Z,55.30
2018-05-11T19:23:52.081Z,55.30
2018-05-11T19:26:20.828Z,55.60
2018-05-11T19:28:49.462Z,55.60
2018-05-11T19:31:20.999Z,55.60
2018-05-11T19:33:51.688Z,55.50
2018-05-11T19:36:19.270Z,55.70
2018-05-11T19:38:47.788Z,55.90
2018-05-11T19:41:19.284Z,56.20
2018-05-11T19:43:46.819Z,56.40
2018-05-11T19:46:15.438Z,56.80
2018-05-11T19:48:43.928Z,56.80
2018-05-11T19:51:11.523Z,56.80
2018-05-11T19:53:40.131Z,57.10
2018-05-11T19:56:07.853Z,57.30
2018-05-11T19:58:35.427Z,57.20
2018-05-11T20:01:02.986Z,57.40
2018-05-11T20:03:31.701Z,57.20
2018-05-11T20:06:00.183Z,56.90
2018-05-11T20:08:27.740Z,57.10
2018-05-11T20:10:56.117Z,57.60
2018-05-11T20:13:23.653Z,57.50
2018-05-11T20:15:51.959Z,57.90
2018-05-11T20:18:20.619Z,57.90
2018-05-11T20:20:49.180Z,58.10
2018-05-11T20:23:24.673Z,58.20
2018-05-11T20:25:53.212Z,58.40
2018-05-11T20:28:20.764Z,58.60
2018-05-11T20:30:49.402Z,59.50
2018-05-11T20:33:17.032Z,58.90
2018-05-11T20:35:46.309Z,59.30
2018-05-11T20:38:15.145Z,59.20
2018-05-11T20:40:44.749Z,59.40
2018-05-11T20:43:12.672Z,59.40
2018-05-11T20:45:40.265Z,59.50
2018-05-11T20:48:07.963Z,59.90
2018-05-11T20:50:36.329Z,60.70
2018-05-11T20:53:04.953Z,60.10
2018-05-11T20:55:32.648Z,60.30
2018-05-11T20:58:01.896Z,60.90
2018-05-11T21:00:29.478Z,60.80
2018-05-11T21:02:57.018Z,60.90
2018-05-11T21:05:24.909Z,61.00
2018-05-11T21:07:54.230Z,61.40
2018-05-11T21:10:21.837Z,61.60
2018-05-11T21:12:49.715Z,61.70
2018-05-11T21:15:17.281Z,61.90
2018-05-11T21:17:44.826Z,62.10
2018-05-11T21:20:12.449Z,62.40
2018-05-11T21:22:40.062Z,62.60
2018-05-11T21:25:07.695Z,62.80
2018-05-11T21:27:36.029Z,63.10
2018-05-11T21:30:03.689Z,62.90
2018-05-11T21:32:31.249Z,63.20
2018-05-11T21:34:59.792Z,63.30
2018-05-11T21:37:27.685Z,63.20
2018-05-11T21:39:55.304Z,63.30
2018-05-11T21:42:22.896Z,63.40
2018-05-11T21:44:50.519Z,63.70
2018-05-11T21:47:18.201Z,63.80
2018-05-11T21:49:46.803Z,64.00
2018-05-11T21:52:14.461Z,64.20
2018-05-11T21:54:42.106Z,64.10
2018-05-11T21:57:09.692Z,64.50
2018-05-11T21:59:37.288Z,64.60
2018-05-11T22:02:05.018Z,64.60
2018-05-11T22:04:33.588Z,64.80
2018-05-11T22:07:01.235Z,65.00
2018-05-11T22:09:28.816Z,65.10
2018-05-11T22:11:56.443Z,65.20
2018-05-11T22:14:24.144Z,65.50
2018-05-11T22:16:52.221Z,65.60
2018-05-11T22:19:19.945Z,65.80
2018-05-11T22:21:48.441Z,66.00
2018-05-11T22:24:16.031Z,66.20
2018-05-11T22:26:45.615Z,66.30
2018-05-11T22:29:13.335Z,66.50
2018-05-11T22:31:40.966Z,66.80
2018-05-11T22:34:08.629Z,66.90
2018-05-11T22:36:36.257Z,67.10
2018-05-11T22:39:03.933Z,67.30
2018-05-11T22:41:32.645Z,67.50
2018-05-11T22:44:00.283Z,67.70
2018-05-11T22:46:27.879Z,67.80
2018-05-11T22:48:56.504Z,67.80
2018-05-11T22:51:24.069Z,67.90
2018-05-11T22:53:51.725Z,68.10
2018-05-11T22:56:19.427Z,68.20
2018-05-11T22:58:55.849Z,68.40
2018-05-11T23:01:25.176Z,68.60
2018-05-11T23:03:52.989Z,68.70
2018-05-11T23:06:21.593Z,68.80
2018-05-11T23:08:49.274Z,68.90
2018-05-11T23:11:18.455Z,69.20
2018-05-11T23:13:48.449Z,69.30
2018-05-11T23:16:17.450Z,69.40
2018-05-11T23:18:45.539Z,69.60
2018-05-11T23:21:14.261Z,69.60
2018-05-11T23:23:44.395Z,69.70
2018-05-11T23:26:12.458Z,69.90
2018-05-11T23:28:41.228Z,70.10
2018-05-11T23:31:09.923Z,70.10
2018-05-11T23:33:38.933Z,70.30
2018-05-11T23:36:09.879Z,70.20
2018-05-11T23:38:42.767Z,70.40
2018-05-11T23:41:24.769Z,70.50
2018-05-11T23:43:56.909Z,70.60
2018-05-11T23:46:26.636Z,70.80
2018-05-11T23:49:00.186Z,70.80
2018-05-11T23:51:38.123Z,70.70
2018-05-11T23:54:29.487Z,71.00
2018-05-11T23:57:01.779Z,70.90
2018-05-11T23:59:30.850Z,71.00
